sensor_id;sensor_type;location;lat;lon;timestamp;temperature;humidity
76857;DHT22;66179;44.686;37.628;2023-02-03T00:02:02;0.74;96.40
76857;DHT22;66179;44.686;37.628;2023-02-03T00:04:29;0.69;95.83
76857;DHT22;66179;44.686;37.628;2023-02-03T00:06:56;0.67;95.30
76857;DHT22;66179;44.686;37.628;2023-02-03T00:09:23;0.61;95.20
76857;DHT22;66179;44.686;37.628;2023-02-03T00:11:50;0.61;95.29
76857;DHT22;66179;44.686;37.628;2023-02-03T00:14:17;0.58;95.18
76857;DHT22;66179;44.686;37.628;2023-02-03T00:16:44;0.54;95.13
76857;DHT22;66179;44.686;37.628;2023-02-03T00:19:10;0.53;95.49
76857;DHT22;66179;44.686;37.628;2023-02-03T00:21:37;0.57;95.46
76857;DHT22;66179;44.686;37.628;2023-02-03T00:24:04;0.63;95.56
76857;DHT22;66179;44.686;37.628;2023-02-03T00:26:31;0.67;95.77
76857;DHT22;66179;44.686;37.628;2023-02-03T00:28:58;0.67;95.06
76857;DHT22;66179;44.686;37.628;2023-02-03T00:31:26;0.71;95.05
76857;DHT22;66179;44.686;37.628;2023-02-03T00:33:55;0.83;94.98
76857;DHT22;66179;44.686;37.628;2023-02-03T00:36:23;0.99;94.88
76857;DHT22;66179;44.686;37.628;2023-02-03T00:38:50;1.11;93.82
76857;DHT22;66179;44.686;37.628;2023-02-03T00:41:17;1.13;94.47
76857;DHT22;66179;44.686;37.628;2023-02-03T00:43:45;1.16;94.89
76857;DHT22;66179;44.686;37.628;2023-02-03T00:46:13;1.11;94.75
76857;DHT22;66179;44.686;37.628;2023-02-03T00:48:40;1.07;95.14
76857;DHT22;66179;44.686;37.628;2023-02-03T00:51:07;1.10;95.34
76857;DHT22;66179;44.686;37.628;2023-02-03T00:53:34;1.16;95.14
76857;DHT22;66179;44.686;37.628;2023-02-03T00:56:01;1.14;94.17
76857;DHT22;66179;44.686;37.628;2023-02-03T00:58:28;1.20;93.65
76857;DHT22;66179;44.686;37.628;2023-02-03T01:00:55;1.08;93.91
76857;DHT22;66179;44.686;37.628;2023-02-03T01:03:24;1.01;94.19
76857;DHT22;66179;44.686;37.628;2023-02-03T01:05:51;0.94;94.48
76857;DHT22;66179;44.686;37.628;2023-02-03T01:08:19;0.92;94.56
76857;DHT22;66179;44.686;37.628;2023-02-03T01:10:46;0.95;94.70
76857;DHT22;66179;44.686;37.628;2023-02-03T01:13:12;1.01;93.95
76857;DHT22;66179;44.686;37.628;2023-02-03T01:15:46;0.93;93.95
76857;DHT22;66179;44.686;37.628;2023-02-03T01:18:14;0.89;94.17
76857;DHT22;66179;44.686;37.628;2023-02-03T01:20:40;0.84;94.17
76857;DHT22;66179;44.686;37.628;2023-02-03T01:23:07;0.95;94.14
76857;DHT22;66179;44.686;37.628;2023-02-03T01:25:35;0.89;93.10
76857;DHT22;66179;44.686;37.628;2023-02-03T01:28:01;0.81;93.24
76857;DHT22;66179;44.686;37.628;2023-02-03T01:30:28;0.79;94.40
76857;DHT22;66179;44.686;37.628;2023-02-03T01:32:55;0.79;94.04
76857;DHT22;66179;44.686;37.628;2023-02-03T01:35:22;0.73;94.01
76857;DHT22;66179;44.686;37.628;2023-02-03T01:37:49;0.66;94.26
76857;DHT22;66179;44.686;37.628;2023-02-03T01:40:16;0.58;94.61
76857;DHT22;66179;44.686;37.628;2023-02-03T01:42:43;0.57;94.94
76857;DHT22;66179;44.686;37.628;2023-02-03T01:45:10;0.61;94.99
76857;DHT22;66179;44.686;37.628;2023-02-03T01:47:46;0.61;94.65
76857;DHT22;66179;44.686;37.628;2023-02-03T01:50:21;0.58;95.01
76857;DHT22;66179;44.686;37.628;2023-02-03T01:52:53;0.63;94.88
76857;DHT22;66179;44.686;37.628;2023-02-03T01:55:27;0.65;94.58
76857;DHT22;66179;44.686;37.628;2023-02-03T01:58:00;0.65;94.13
76857;DHT22;66179;44.686;37.628;2023-02-03T02:00:29;0.60;93.71
76857;DHT22;66179;44.686;37.628;2023-02-03T02:02:57;0.55;94.05
76857;DHT22;66179;44.686;37.628;2023-02-03T02:05:30;0.50;94.68
76857;DHT22;66179;44.686;37.628;2023-02-03T02:07:59;0.52;95.23
76857;DHT22;66179;44.686;37.628;2023-02-03T02:10:28;0.52;95.56
76857;DHT22;66179;44.686;37.628;2023-02-03T02:12:58;0.52;95.80
76857;DHT22;66179;44.686;37.628;2023-02-03T02:32:39;0.59;95.43
76857;DHT22;66179;44.686;37.628;2023-02-03T02:43:22;0.64;95.62
76857;DHT22;66179;44.686;37.628;2023-02-03T02:46:12;0.65;95.54
76857;DHT22;66179;44.686;37.628;2023-02-03T02:48:49;0.73;96.23
76857;DHT22;66179;44.686;37.628;2023-02-03T02:51:19;0.86;96.36
76857;DHT22;66179;44.686;37.628;2023-02-03T02:53:55;0.98;96.76
76857;DHT22;66179;44.686;37.628;2023-02-03T02:56:24;1.02;96.80
76857;DHT22;66179;44.686;37.628;2023-02-03T02:58:53;1.01;96.52
76857;DHT22;66179;44.686;37.628;2023-02-03T03:01:22;0.94;96.01
76857;DHT22;66179;44.686;37.628;2023-02-03T03:03:48;0.86;96.05
76857;DHT22;66179;44.686;37.628;2023-02-03T03:06:25;0.77;95.92
76857;DHT22;66179;44.686;37.628;2023-02-03T03:09:03;0.84;96.09
76857;DHT22;66179;44.686;37.628;2023-02-03T03:11:35;0.97;95.65
76857;DHT22;66179;44.686;37.628;2023-02-03T03:14:05;1.02;95.41
76857;DHT22;66179;44.686;37.628;2023-02-03T03:16:36;1.03;95.84
76857;DHT22;66179;44.686;37.628;2023-02-03T03:19:09;1.04;95.33
76857;DHT22;66179;44.686;37.628;2023-02-03T03:21:50;1.02;95.68
76857;DHT22;66179;44.686;37.628;2023-02-03T03:24:22;1.11;95.61
76857;DHT22;66179;44.686;37.628;2023-02-03T03:29:48;1.20;94.07
76857;DHT22;66179;44.686;37.628;2023-02-03T03:32:16;1.16;94.08
76857;DHT22;66179;44.686;37.628;2023-02-03T03:34:43;1.27;93.43
76857;DHT22;66179;44.686;37.628;2023-02-03T03:37:30;1.16;94.07
76857;DHT22;66179;44.686;37.628;2023-02-03T03:39:59;1.09;94.56
76857;DHT22;66179;44.686;37.628;2023-02-03T03:42:33;1.03;94.65
76857;DHT22;66179;44.686;37.628;2023-02-03T03:45:12;0.98;94.94
76857;DHT22;66179;44.686;37.628;2023-02-03T03:50:27;0.88;95.16
76857;DHT22;66179;44.686;37.628;2023-02-03T03:52:55;0.91;94.70
76857;DHT22;66179;44.686;37.628;2023-02-03T03:55:23;0.86;95.32
76857;DHT22;66179;44.686;37.628;2023-02-03T03:58:00;0.90;95.69
76857;DHT22;66179;44.686;37.628;2023-02-03T04:00:31;0.92;95.69
76857;DHT22;66179;44.686;37.628;2023-02-03T04:03:05;0.95;96.25
76857;DHT22;66179;44.686;37.628;2023-02-03T04:05:33;0.96;96.45
76857;DHT22;66179;44.686;37.628;2023-02-03T04:08:00;1.12;97.01
76857;DHT22;66179;44.686;37.628;2023-02-03T04:10:40;1.18;96.64
76857;DHT22;66179;44.686;37.628;2023-02-03T04:13:08;1.24;97.14
76857;DHT22;66179;44.686;37.628;2023-02-03T04:15:35;1.50;96.78
76857;DHT22;66179;44.686;37.628;2023-02-03T04:18:03;1.63;96.06
76857;DHT22;66179;44.686;37.628;2023-02-03T04:20:31;1.79;95.12
76857;DHT22;66179;44.686;37.628;2023-02-03T04:22:58;1.84;95.33
76857;DHT22;66179;44.686;37.628;2023-02-03T04:25:25;1.88;95.53
76857;DHT22;66179;44.686;37.628;2023-02-03T04:27:52;1.91;95.38
76857;DHT22;66179;44.686;37.628;2023-02-03T04:30:18;1.96;95.47
76857;DHT22;66179;44.686;37.628;2023-02-03T04:32:46;1.93;94.97
76857;DHT22;66179;44.686;37.628;2023-02-03T04:35:13;1.98;95.26
76857;DHT22;66179;44.686;37.628;2023-02-03T04:37:40;1.93;95.23
76857;DHT22;66179;44.686;37.628;2023-02-03T04:40:08;1.88;95.37
76857;DHT22;66179;44.686;37.628;2023-02-03T04:42:39;1.90;95.71
76857;DHT22;66179;44.686;37.628;2023-02-03T04:45:07;1.95;95.83
76857;DHT22;66179;44.686;37.628;2023-02-03T04:47:35;1.92;95.76
76857;DHT22;66179;44.686;37.628;2023-02-03T04:50:02;1.92;95.75
76857;DHT22;66179;44.686;37.628;2023-02-03T04:52:29;1.88;96.02
76857;DHT22;66179;44.686;37.628;2023-02-03T04:54:56;1.86;96.28
76857;DHT22;66179;44.686;37.628;2023-02-03T04:57:22;1.80;96.30
76857;DHT22;66179;44.686;37.628;2023-02-03T04:59:49;1.79;96.57
76857;DHT22;66179;44.686;37.628;2023-02-03T05:02:16;1.78;96.62
76857;DHT22;66179;44.686;37.628;2023-02-03T05:04:43;1.82;96.29
76857;DHT22;66179;44.686;37.628;2023-02-03T05:07:09;1.84;96.36
76857;DHT22;66179;44.686;37.628;2023-02-03T05:09:36;1.88;96.46
76857;DHT22;66179;44.686;37.628;2023-02-03T05:12:03;2.00;96.20
76857;DHT22;66179;44.686;37.628;2023-02-03T05:14:30;2.01;96.33
76857;DHT22;66179;44.686;37.628;2023-02-03T05:16:56;2.02;96.40
76857;DHT22;66179;44.686;37.628;2023-02-03T05:19:23;2.06;96.46
76857;DHT22;66179;44.686;37.628;2023-02-03T05:21:50;2.06;96.22
76857;DHT22;66179;44.686;37.628;2023-02-03T05:24:17;2.12;96.39
76857;DHT22;66179;44.686;37.628;2023-02-03T05:26:43;2.26;95.83
76857;DHT22;66179;44.686;37.628;2023-02-03T05:29:10;2.20;96.17
76857;DHT22;66179;44.686;37.628;2023-02-03T05:31:37;2.21;96.26
76857;DHT22;66179;44.686;37.628;2023-02-03T05:34:04;2.20;96.09
76857;DHT22;66179;44.686;37.628;2023-02-03T05:36:31;2.38;95.35
76857;DHT22;66179;44.686;37.628;2023-02-03T05:38:57;2.29;95.59
76857;DHT22;66179;44.686;37.628;2023-02-03T05:41:24;2.28;95.98
76857;DHT22;66179;44.686;37.628;2023-02-03T05:44:09;2.30;96.22
76857;DHT22;66179;44.686;37.628;2023-02-03T05:46:36;2.51;95.38
76857;DHT22;66179;44.686;37.628;2023-02-03T05:49:03;2.51;95.74
76857;DHT22;66179;44.686;37.628;2023-02-03T05:51:30;2.42;95.79
76857;DHT22;66179;44.686;37.628;2023-02-03T05:53:57;2.40;95.83
76857;DHT22;66179;44.686;37.628;2023-02-03T05:56:23;2.39;96.19
76857;DHT22;66179;44.686;37.628;2023-02-03T05:58:50;2.45;95.91
76857;DHT22;66179;44.686;37.628;2023-02-03T06:01:18;2.45;96.07
76857;DHT22;66179;44.686;37.628;2023-02-03T06:03:46;2.50;96.05
76857;DHT22;66179;44.686;37.628;2023-02-03T06:06:13;2.59;96.42
76857;DHT22;66179;44.686;37.628;2023-02-03T06:08:41;2.64;96.30
76857;DHT22;66179;44.686;37.628;2023-02-03T06:11:09;2.81;96.00
76857;DHT22;66179;44.686;37.628;2023-02-03T06:13:36;2.81;96.71
76857;DHT22;66179;44.686;37.628;2023-02-03T06:16:03;2.98;96.31
76857;DHT22;66179;44.686;37.628;2023-02-03T06:18:30;3.03;95.86
76857;DHT22;66179;44.686;37.628;2023-02-03T06:20:57;3.09;95.70
76857;DHT22;66179;44.686;37.628;2023-02-03T06:23:24;3.10;95.98
76857;DHT22;66179;44.686;37.628;2023-02-03T06:25:51;3.17;95.88
76857;DHT22;66179;44.686;37.628;2023-02-03T06:28:18;3.29;95.82
76857;DHT22;66179;44.686;37.628;2023-02-03T06:30:48;3.29;96.07
76857;DHT22;66179;44.686;37.628;2023-02-03T06:33:16;3.39;96.89
76857;DHT22;66179;44.686;37.628;2023-02-03T06:35:42;3.60;99.35
76857;DHT22;66179;44.686;37.628;2023-02-03T06:38:09;4.08;100.33
76857;DHT22;66179;44.686;37.628;2023-02-03T06:40:36;4.50;97.07
76857;DHT22;66179;44.686;37.628;2023-02-03T06:43:04;4.91;95.01
76857;DHT22;66179;44.686;37.628;2023-02-03T06:45:31;5.22;92.50
76857;DHT22;66179;44.686;37.628;2023-02-03T06:47:57;5.45;91.69
76857;DHT22;66179;44.686;37.628;2023-02-03T06:50:24;5.64;90.89
76857;DHT22;66179;44.686;37.628;2023-02-03T06:52:51;5.80;88.43
76857;DHT22;66179;44.686;37.628;2023-02-03T06:55:17;5.94;87.64
76857;DHT22;66179;44.686;37.628;2023-02-03T06:57:46;6.07;87.49
76857;DHT22;66179;44.686;37.628;2023-02-03T07:00:14;6.17;86.79
76857;DHT22;66179;44.686;37.628;2023-02-03T07:02:41;6.27;85.13
76857;DHT22;66179;44.686;37.628;2023-02-03T07:05:08;6.36;86.34
76857;DHT22;66179;44.686;37.628;2023-02-03T07:07:35;6.45;84.26
76857;DHT22;66179;44.686;37.628;2023-02-03T07:10:06;6.54;83.97
76857;DHT22;66179;44.686;37.628;2023-02-03T07:12:32;6.61;83.82
76857;DHT22;66179;44.686;37.628;2023-02-03T07:15:05;6.68;83.15
76857;DHT22;66179;44.686;37.628;2023-02-03T07:17:32;6.73;82.78
76857;DHT22;66179;44.686;37.628;2023-02-03T07:19:59;6.79;82.79
76857;DHT22;66179;44.686;37.628;2023-02-03T07:22:25;6.80;83.64
76857;DHT22;66179;44.686;37.628;2023-02-03T07:24:52;6.84;84.13
76857;DHT22;66179;44.686;37.628;2023-02-03T07:27:19;6.88;84.58
76857;DHT22;66179;44.686;37.628;2023-02-03T07:29:46;6.93;84.83
76857;DHT22;66179;44.686;37.628;2023-02-03T07:32:13;6.98;82.55
76857;DHT22;66179;44.686;37.628;2023-02-03T07:34:39;7.03;82.85
76857;DHT22;66179;44.686;37.628;2023-02-03T07:37:06;7.03;82.39
76857;DHT22;66179;44.686;37.628;2023-02-03T07:39:33;7.08;80.91
76857;DHT22;66179;44.686;37.628;2023-02-03T07:42:00;7.09;78.98
76857;DHT22;66179;44.686;37.628;2023-02-03T07:44:29;7.08;78.43
76857;DHT22;66179;44.686;37.628;2023-02-03T07:46:55;7.09;78.98
76857;DHT22;66179;44.686;37.628;2023-02-03T07:49:22;7.10;79.42
76857;DHT22;66179;44.686;37.628;2023-02-03T07:51:49;7.11;79.82
76857;DHT22;66179;44.686;37.628;2023-02-03T07:54:16;7.14;80.11
76857;DHT22;66179;44.686;37.628;2023-02-03T07:56:43;7.12;81.21
76857;DHT22;66179;44.686;37.628;2023-02-03T07:59:10;7.15;80.47
76857;DHT22;66179;44.686;37.628;2023-02-03T08:01:36;7.17;80.07
76857;DHT22;66179;44.686;37.628;2023-02-03T08:04:03;7.20;80.83
76857;DHT22;66179;44.686;37.628;2023-02-03T08:06:31;7.23;82.24
76857;DHT22;66179;44.686;37.628;2023-02-03T08:08:57;7.25;81.83
76857;DHT22;66179;44.686;37.628;2023-02-03T08:11:24;7.23;83.35
76857;DHT22;66179;44.686;37.628;2023-02-03T08:13:51;7.27;83.04
76857;DHT22;66179;44.686;37.628;2023-02-03T08:16:18;7.27;83.10
76857;DHT22;66179;44.686;37.628;2023-02-03T08:18:44;7.28;82.55
76857;DHT22;66179;44.686;37.628;2023-02-03T08:21:11;7.32;83.46
76857;DHT22;66179;44.686;37.628;2023-02-03T08:23:38;7.31;84.58
76857;DHT22;66179;44.686;37.628;2023-02-03T08:26:05;7.24;85.36
76857;DHT22;66179;44.686;37.628;2023-02-03T08:28:31;7.13;88.03
76857;DHT22;66179;44.686;37.628;2023-02-03T08:30:58;7.23;87.65
76857;DHT22;66179;44.686;37.628;2023-02-03T08:33:25;7.27;89.11
76857;DHT22;66179;44.686;37.628;2023-02-03T08:35:54;7.37;87.19
76857;DHT22;66179;44.686;37.628;2023-02-03T08:38:22;7.43;87.53
76857;DHT22;66179;44.686;37.628;2023-02-03T08:40:48;7.49;86.79
76857;DHT22;66179;44.686;37.628;2023-02-03T08:43:15;7.56;86.41
76857;DHT22;66179;44.686;37.628;2023-02-03T08:45:42;7.60;82.05
76857;DHT22;66179;44.686;37.628;2023-02-03T08:48:09;7.12;85.28
76857;DHT22;66179;44.686;37.628;2023-02-03T08:50:36;6.50;88.97
76857;DHT22;66179;44.686;37.628;2023-02-03T08:53:03;6.06;88.84
76857;DHT22;66179;44.686;37.628;2023-02-03T08:55:30;5.76;89.71
76857;DHT22;66179;44.686;37.628;2023-02-03T08:57:56;5.51;91.76
76857;DHT22;66179;44.686;37.628;2023-02-03T09:00:23;5.42;92.27
76857;DHT22;66179;44.686;37.628;2023-02-03T09:02:50;5.41;92.07
76857;DHT22;66179;44.686;37.628;2023-02-03T09:05:17;5.32;91.98
76857;DHT22;66179;44.686;37.628;2023-02-03T09:07:44;5.23;92.46
76857;DHT22;66179;44.686;37.628;2023-02-03T09:10:11;5.27;93.46
76857;DHT22;66179;44.686;37.628;2023-02-03T09:12:37;5.34;91.60
76857;DHT22;66179;44.686;37.628;2023-02-03T09:15:04;5.39;91.38
76857;DHT22;66179;44.686;37.628;2023-02-03T09:17:31;5.37;91.16
76857;DHT22;66179;44.686;37.628;2023-02-03T09:19:58;5.37;91.59
76857;DHT22;66179;44.686;37.628;2023-02-03T09:22:25;5.39;92.68
76857;DHT22;66179;44.686;37.628;2023-02-03T09:24:52;5.46;93.40
76857;DHT22;66179;44.686;37.628;2023-02-03T09:27:18;5.53;93.33
76857;DHT22;66179;44.686;37.628;2023-02-03T09:29:45;5.59;93.66
76857;DHT22;66179;44.686;37.628;2023-02-03T09:32:12;5.63;93.62
76857;DHT22;66179;44.686;37.628;2023-02-03T09:34:39;5.65;92.93
76857;DHT22;66179;44.686;37.628;2023-02-03T09:37:07;5.69;91.82
76857;DHT22;66179;44.686;37.628;2023-02-03T09:39:34;5.69;90.73
76857;DHT22;66179;44.686;37.628;2023-02-03T09:42:08;5.68;89.44
76857;DHT22;66179;44.686;37.628;2023-02-03T09:45:12;5.68;91.01
76857;DHT22;66179;44.686;37.628;2023-02-03T09:47:42;5.75;91.61
76857;DHT22;66179;44.686;37.628;2023-02-03T09:50:30;5.83;91.76
76857;DHT22;66179;44.686;37.628;2023-02-03T09:53:04;5.95;90.55
76857;DHT22;66179;44.686;37.628;2023-02-03T09:55:40;6.04;89.12
76857;DHT22;66179;44.686;37.628;2023-02-03T09:58:15;6.12;89.76
76857;DHT22;66179;44.686;37.628;2023-02-03T10:00:50;6.22;89.36
76857;DHT22;66179;44.686;37.628;2023-02-03T10:06:07;6.38;89.56
76857;DHT22;66179;44.686;37.628;2023-02-03T10:17:18;6.49;88.66
76857;DHT22;66179;44.686;37.628;2023-02-03T10:20:13;6.53;86.56
76857;DHT22;66179;44.686;37.628;2023-02-03T10:22:47;6.56;87.77
76857;DHT22;66179;44.686;37.628;2023-02-03T10:27:56;6.64;87.59
76857;DHT22;66179;44.686;37.628;2023-02-03T10:30:27;6.63;87.05
76857;DHT22;66179;44.686;37.628;2023-02-03T10:33:12;6.64;87.99
76857;DHT22;66179;44.686;37.628;2023-02-03T10:35:49;6.63;84.67
76857;DHT22;66179;44.686;37.628;2023-02-03T10:38:31;6.61;85.29
76857;DHT22;66179;44.686;37.628;2023-02-03T10:41:01;6.60;87.32
76857;DHT22;66179;44.686;37.628;2023-02-03T10:43:30;6.59;87.00
76857;DHT22;66179;44.686;37.628;2023-02-03T10:46:14;6.57;87.18
76857;DHT22;66179;44.686;37.628;2023-02-03T10:48:41;6.60;85.08
76857;DHT22;66179;44.686;37.628;2023-02-03T10:53:42;6.67;86.21
76857;DHT22;66179;44.686;37.628;2023-02-03T10:56:15;6.71;85.89
76857;DHT22;66179;44.686;37.628;2023-02-03T10:58:51;6.80;86.77
76857;DHT22;66179;44.686;37.628;2023-02-03T11:01:21;6.83;84.29
76857;DHT22;66179;44.686;37.628;2023-02-03T11:04:00;6.91;85.32
76857;DHT22;66179;44.686;37.628;2023-02-03T11:06:30;6.96;84.61
76857;DHT22;66179;44.686;37.628;2023-02-03T11:08:57;7.02;85.35
76857;DHT22;66179;44.686;37.628;2023-02-03T11:11:29;7.09;85.59
76857;DHT22;66179;44.686;37.628;2023-02-03T11:16:32;7.15;85.50
76857;DHT22;66179;44.686;37.628;2023-02-03T11:19:04;7.20;84.96
76857;DHT22;66179;44.686;37.628;2023-02-03T11:27:10;7.32;84.87
76857;DHT22;66179;44.686;37.628;2023-02-03T11:29:43;7.39;86.13
76857;DHT22;66179;44.686;37.628;2023-02-03T11:32:34;7.45;85.96
76857;DHT22;66179;44.686;37.628;2023-02-03T11:35:17;7.48;85.90
76857;DHT22;66179;44.686;37.628;2023-02-03T11:37:46;7.52;86.16
76857;DHT22;66179;44.686;37.628;2023-02-03T11:47:55;7.82;84.21
76857;DHT22;66179;44.686;37.628;2023-02-03T11:59:10;7.83;79.79
76857;DHT22;66179;44.686;37.628;2023-02-03T12:10:17;7.14;80.27
76857;DHT22;66179;44.686;37.628;2023-02-03T12:24:33;7.85;76.48
76857;DHT22;66179;44.686;37.628;2023-02-03T12:27:33;7.70;76.89
76857;DHT22;66179;44.686;37.628;2023-02-03T12:32:53;7.61;78.83
76857;DHT22;66179;44.686;37.628;2023-02-03T12:35:35;7.62;79.10
76857;DHT22;66179;44.686;37.628;2023-02-03T12:41:00;7.69;81.09
76857;DHT22;66179;44.686;37.628;2023-02-03T12:43:37;7.72;81.73
76857;DHT22;66179;44.686;37.628;2023-02-03T12:46:23;7.73;78.23
76857;DHT22;66179;44.686;37.628;2023-02-03T12:51:55;7.73;80.15
76857;DHT22;66179;44.686;37.628;2023-02-03T12:54:30;7.57;79.90
76857;DHT22;66179;44.686;37.628;2023-02-03T12:57:15;7.37;79.49
76857;DHT22;66179;44.686;37.628;2023-02-03T12:59:55;7.26;80.91
76857;DHT22;66179;44.686;37.628;2023-02-03T13:02:27;7.14;81.83
76857;DHT22;66179;44.686;37.628;2023-02-03T13:05:08;7.04;81.45
76857;DHT22;66179;44.686;37.628;2023-02-03T13:08:06;6.94;81.62
76857;DHT22;66179;44.686;37.628;2023-02-03T13:10:44;6.87;83.87
76857;DHT22;66179;44.686;37.628;2023-02-03T13:13:22;6.67;82.33
76857;DHT22;66179;44.686;37.628;2023-02-03T13:15:52;6.39;82.63
76857;DHT22;66179;44.686;37.628;2023-02-03T13:18:31;6.22;84.63
76857;DHT22;66179;44.686;37.628;2023-02-03T13:21:00;6.21;84.67
76857;DHT22;66179;44.686;37.628;2023-02-03T13:23:26;6.21;87.56
76857;DHT22;66179;44.686;37.628;2023-02-03T13:26:36;6.17;85.54
76857;DHT22;66179;44.686;37.628;2023-02-03T13:32:19;6.24;82.07
76857;DHT22;66179;44.686;37.628;2023-02-03T13:42:46;6.21;84.41
76857;DHT22;66179;44.686;37.628;2023-02-03T13:45:38;6.23;85.48
76857;DHT22;66179;44.686;37.628;2023-02-03T13:48:19;6.17;87.26
76857;DHT22;66179;44.686;37.628;2023-02-03T13:50:48;6.29;85.69
76857;DHT22;66179;44.686;37.628;2023-02-03T13:53:22;6.35;85.95
76857;DHT22;66179;44.686;37.628;2023-02-03T13:55:57;6.36;87.74
76857;DHT22;66179;44.686;37.628;2023-02-03T13:58:28;6.30;82.32
76857;DHT22;66179;44.686;37.628;2023-02-03T14:01:02;6.23;83.33
76857;DHT22;66179;44.686;37.628;2023-02-03T14:05:59;6.17;84.68
76857;DHT22;66179;44.686;37.628;2023-02-03T14:16:38;6.05;86.27
76857;DHT22;66179;44.686;37.628;2023-02-03T14:19:10;5.83;86.03
76857;DHT22;66179;44.686;37.628;2023-02-03T14:24:14;5.55;88.01
76857;DHT22;66179;44.686;37.628;2023-02-03T14:26:50;5.37;89.94
76857;DHT22;66179;44.686;37.628;2023-02-03T14:29:26;5.31;86.89
76857;DHT22;66179;44.686;37.628;2023-02-03T14:32:07;5.26;85.72
76857;DHT22;66179;44.686;37.628;2023-02-03T14:34:47;5.17;89.19
76857;DHT22;66179;44.686;37.628;2023-02-03T14:37:29;5.15;89.88
76857;DHT22;66179;44.686;37.628;2023-02-03T15:05:43;5.76;91.21
76857;DHT22;66179;44.686;37.628;2023-02-03T15:13:51;6.42;90.11
76857;DHT22;66179;44.686;37.628;2023-02-03T15:16:20;6.53;88.57
76857;DHT22;66179;44.686;37.628;2023-02-03T15:18:57;6.26;86.16
76857;DHT22;66179;44.686;37.628;2023-02-03T15:21:24;5.96;86.47
76857;DHT22;66179;44.686;37.628;2023-02-03T15:23:52;5.80;88.66
76857;DHT22;66179;44.686;37.628;2023-02-03T15:26:21;5.78;88.97
76857;DHT22;66179;44.686;37.628;2023-02-03T15:28:54;5.76;89.79
76857;DHT22;66179;44.686;37.628;2023-02-03T15:31:41;5.80;90.06
76857;DHT22;66179;44.686;37.628;2023-02-03T15:34:32;5.87;87.89
76857;DHT22;66179;44.686;37.628;2023-02-03T15:37:07;5.94;86.46
76857;DHT22;66179;44.686;37.628;2023-02-03T15:40:11;5.96;90.15
76857;DHT22;66179;44.686;37.628;2023-02-03T15:42:52;5.92;87.44
76857;DHT22;66179;44.686;37.628;2023-02-03T15:45:28;5.92;89.67
76857;DHT22;66179;44.686;37.628;2023-02-03T15:48:17;5.96;86.90
76857;DHT22;66179;44.686;37.628;2023-02-03T15:50:59;5.97;90.11
76857;DHT22;66179;44.686;37.628;2023-02-03T15:53:33;6.01;88.60
76857;DHT22;66179;44.686;37.628;2023-02-03T15:56:03;6.09;87.16
76857;DHT22;66179;44.686;37.628;2023-02-03T15:58:39;6.10;84.01
76857;DHT22;66179;44.686;37.628;2023-02-03T16:01:12;6.17;87.94
76857;DHT22;66179;44.686;37.628;2023-02-03T16:03:59;6.26;83.83
76857;DHT22;66179;44.686;37.628;2023-02-03T16:06:33;6.36;86.09
76857;DHT22;66179;44.686;37.628;2023-02-03T16:09:22;6.34;84.52
76857;DHT22;66179;44.686;37.628;2023-02-03T16:12:03;6.52;90.73
76857;DHT22;66179;44.686;37.628;2023-02-03T16:14:33;6.60;85.36
76857;DHT22;66179;44.686;37.628;2023-02-03T16:17:00;6.60;85.36
76857;DHT22;66179;44.686;37.628;2023-02-03T16:19:29;6.61;85.83
76857;DHT22;66179;44.686;37.628;2023-02-03T16:21:58;6.64;86.22
76857;DHT22;66179;44.686;37.628;2023-02-03T16:33:04;6.66;83.48
76857;DHT22;66179;44.686;37.628;2023-02-03T16:35:54;6.72;84.36
76857;DHT22;66179;44.686;37.628;2023-02-03T16:38:49;6.57;85.84
76857;DHT22;66179;44.686;37.628;2023-02-03T16:41:35;6.54;87.97
76857;DHT22;66179;44.686;37.628;2023-02-03T16:44:21;6.46;86.27
76857;DHT22;66179;44.686;37.628;2023-02-03T16:47:23;6.46;85.85
76857;DHT22;66179;44.686;37.628;2023-02-03T16:50:20;6.39;84.96
76857;DHT22;66179;44.686;37.628;2023-02-03T16:53:12;6.33;86.99
76857;DHT22;66179;44.686;37.628;2023-02-03T16:55:40;6.26;85.69
76857;DHT22;66179;44.686;37.628;2023-02-03T16:58:09;6.29;85.63
76857;DHT22;66179;44.686;37.628;2023-02-03T17:00:42;6.33;85.22
76857;DHT22;66179;44.686;37.628;2023-02-03T17:03:12;6.38;85.73
76857;DHT22;66179;44.686;37.628;2023-02-03T17:05:41;6.42;86.38
76857;DHT22;66179;44.686;37.628;2023-02-03T17:08:09;6.46;86.34
76857;DHT22;66179;44.686;37.628;2023-02-03T17:10:39;6.51;85.03
76857;DHT22;66179;44.686;37.628;2023-02-03T17:13:06;6.53;85.67
76857;DHT22;66179;44.686;37.628;2023-02-03T17:15:43;6.55;85.96
76857;DHT22;66179;44.686;37.628;2023-02-03T17:18:11;6.54;86.68
76857;DHT22;66179;44.686;37.628;2023-02-03T17:20:41;6.58;87.00
76857;DHT22;66179;44.686;37.628;2023-02-03T17:23:08;6.64;87.16
76857;DHT22;66179;44.686;37.628;2023-02-03T17:25:35;6.67;86.95
76857;DHT22;66179;44.686;37.628;2023-02-03T17:28:04;6.44;91.45
76857;DHT22;66179;44.686;37.628;2023-02-03T17:30:31;6.40;91.92
76857;DHT22;66179;44.686;37.628;2023-02-03T17:33:01;6.36;91.91
76857;DHT22;66179;44.686;37.628;2023-02-03T17:35:28;6.36;90.73
76857;DHT22;66179;44.686;37.628;2023-02-03T17:37:55;6.24;91.88
76857;DHT22;66179;44.686;37.628;2023-02-03T17:40:21;6.25;90.89
76857;DHT22;66179;44.686;37.628;2023-02-03T17:42:48;6.24;90.15
76857;DHT22;66179;44.686;37.628;2023-02-03T17:45:15;6.29;89.92
76857;DHT22;66179;44.686;37.628;2023-02-03T17:47:42;6.36;88.94
76857;DHT22;66179;44.686;37.628;2023-02-03T17:50:09;6.45;89.44
76857;DHT22;66179;44.686;37.628;2023-02-03T17:52:35;6.55;87.89
76857;DHT22;66179;44.686;37.628;2023-02-03T17:55:02;6.51;87.67
76857;DHT22;66179;44.686;37.628;2023-02-03T17:57:29;6.48;88.57
76857;DHT22;66179;44.686;37.628;2023-02-03T17:59:56;6.48;89.13
76857;DHT22;66179;44.686;37.628;2023-02-03T18:02:24;6.53;87.08
76857;DHT22;66179;44.686;37.628;2023-02-03T18:04:51;6.45;89.04
76857;DHT22;66179;44.686;37.628;2023-02-03T18:07:18;6.40;85.74
76857;DHT22;66179;44.686;37.628;2023-02-03T18:09:44;6.41;86.20
76857;DHT22;66179;44.686;37.628;2023-02-03T18:12:11;6.35;87.58
76857;DHT22;66179;44.686;37.628;2023-02-03T18:14:38;6.37;89.83
76857;DHT22;66179;44.686;37.628;2023-02-03T18:17:07;6.26;89.54
76857;DHT22;66179;44.686;37.628;2023-02-03T18:19:33;6.26;87.35
76857;DHT22;66179;44.686;37.628;2023-02-03T18:22:00;6.30;86.22
76857;DHT22;66179;44.686;37.628;2023-02-03T18:24:27;6.34;85.48
76857;DHT22;66179;44.686;37.628;2023-02-03T18:26:55;6.35;85.81
76857;DHT22;66179;44.686;37.628;2023-02-03T18:29:22;6.36;85.58
76857;DHT22;66179;44.686;37.628;2023-02-03T18:31:49;6.34;84.48
76857;DHT22;66179;44.686;37.628;2023-02-03T18:34:16;6.36;85.03
76857;DHT22;66179;44.686;37.628;2023-02-03T18:36:43;6.36;84.61
76857;DHT22;66179;44.686;37.628;2023-02-03T18:39:10;6.33;83.42